Current | Forecast
Updated: 9:00 AM JST on October 23, 2017
Observed at Memambetsu, Japan
Temperature 37°F
Windchill 28°F
Humidity 93%
Dew Point 36°F
Wind NNE at 18 mph
Pressure 29.62 in (Steady)
Conditions Rain Showers
Visibility 2.2 miles
UV 0 out of 16
Clouds (FEW) : 600 ft
Scattered Clouds (SCT) : 1000 ft
Mostly Cloudy (BKN) : 1500 ft
Yesterday's Maximum 55°F
Yesterday's Minimum 45°F approx.
Yesterday's Heating Degree Days 15 approx.
Sunrise5:47 AM JST
Sunset4:27 PM JST
Moon Rise8:43 AM JST
Moon Set6:45 PM JST
Moon PhaseMoon Phase
Waxing Crescent
Raw METARMETAR RJCM 230000Z 02016KT 3500 SHRA BR FEW006 SCT010 BKN015 03/02 Q1003


Monday
. High: 78° F.
Tuesday
. High: 73° F.
Wednesday
. High: 68° F.
Thursday
. High: 73° F.
Friday
. High: 68° F.
Saturday
. High: 68° F.
Sunday
. High: 59° F.
Monday
. High: 53° F.

Units: English | Metric

Find the Weather for any City, State or Zipcode, or Country:

U.S. State List | Severe Weather | Tropical Storms | Ski Conditions
United States | Canada | Central America | South America | Asia | Europe | Australia | Africa | Islands

Weather Underground

© Copyright 2017
The Weather Company, LLC